メインページ
METAR-TAF:

METAR-TAF

空港 :

マニラ, フィリピン

ニノイ・アキノ国際空港

緯度: 14-31N, 経度: 121-00E, 海抜: 14m

現時点の気象観測

当レポートは8分前の13:00(UTC)に作成
の風 6kt、最大17ktの突風を伴う、東/北東からの間で変化する
気温 27°C
湿度 100%
気圧 1013 hPa
視程: 9000m
高度2200ftの雲は散在している
高度9000ftの曇り
弱いにわか雨

METAR: RPLL 241300Z 10006G17KT 060V170 9000 -SHRA SCT022 OVC090 27/27 Q1013 NOSIG RMK A2991

時間: 21:08 (13:08 UTC)

予報

当レポートは2時間8分前の11:00(UTC)に作成
予報は24日の 12時(UTC)から 25日の 18時(UTC)まで有効
東/南東の風 8kt
視程10km以上
高度2500ftの雲はほとんどない
高度10000ftの雲は散在している
24日の 12時(UTC)から 24日の 18時(UTC)まで一時的に
の風 4kt
視程: 9000m
高度2200ftの雲はほとんどない, 積乱雲.
高度2300ftの雲は散在している
高度9000ftの曇り
弱いにわか雨
24日の 19時(UTC)から 24日の 24時(UTC)まで一時的に
東/南東の風 4kt
高度2300ftの雲は散在している
高度9000ftの千切れ雲あり

TAF: RPLL 241100Z 2412/2518 11008KT 9999 FEW025 SCT100 TX30/2506Z TN25/2421Z TEMPO 2412/2418 10004KT 9000 -SHRA FEW022CB SCT023 OVC090 TEMPO 2419/2424 12004KT SCT023 BKN090

4,000以上の空港の気象観測と天気予報(METAR報とTAF報)

利用可能な観測所は地図上に黄色い丸と赤い丸で示す。

丸の上にカーソルを重ねると観測所名を参照できる。

次にクリックすると気象観測と天気予報を参照できる。

マップの切り替え:黒色「×」印の緑ボタンをクリックして拡大、「-」印の緑ボタンをクリックして縮小、緑色の三角印をクリックして隣りの地図に切り替え


METAR-TAF: